sensor_id;sensor_type;location;lat;lon;timestamp;pressure;altitude;pressure_sealevel;temperature;humidity
74310;BME280;62722;51.142;17.052;2022-09-25T00:02:11;100185.88;;;8.35;90.06
74310;BME280;62722;51.142;17.052;2022-09-25T00:04:38;100177.28;;;8.31;89.96
74310;BME280;62722;51.142;17.052;2022-09-25T00:07:06;100176.59;;;8.28;89.91
74310;BME280;62722;51.142;17.052;2022-09-25T00:09:34;100184.75;;;8.39;89.95
74310;BME280;62722;51.142;17.052;2022-09-25T00:12:01;100172.13;;;8.30;89.97
74310;BME280;62722;51.142;17.052;2022-09-25T00:14:28;100188.41;;;8.37;90.20
74310;BME280;62722;51.142;17.052;2022-09-25T00:16:55;100186.63;;;8.37;89.88
74310;BME280;62722;51.142;17.052;2022-09-25T00:19:22;100191.69;;;8.40;89.96
74310;BME280;62722;51.142;17.052;2022-09-25T00:22:07;100184.75;;;8.39;89.71
74310;BME280;62722;51.142;17.052;2022-09-25T00:24:35;100187.56;;;8.36;89.55
74310;BME280;62722;51.142;17.052;2022-09-25T00:27:02;100179.59;;;8.38;89.58
74310;BME280;62722;51.142;17.052;2022-09-25T00:29:33;100176.59;;;8.28;89.06
74310;BME280;62722;51.142;17.052;2022-09-25T00:32:02;100170.00;;;8.21;89.40
74310;BME280;62722;51.142;17.052;2022-09-25T00:34:29;100175.78;;;8.12;89.73
74310;BME280;62722;51.142;17.052;2022-09-25T00:36:57;100180.13;;;8.13;89.59
74310;BME280;62722;51.142;17.052;2022-09-25T00:39:24;100174.75;;;8.14;89.63
74310;BME280;62722;51.142;17.052;2022-09-25T00:41:53;100174.16;;;8.09;89.75
74310;BME280;62722;51.142;17.052;2022-09-25T00:44:54;100179.09;;;8.00;89.93
74310;BME280;62722;51.142;17.052;2022-09-25T00:47:29;100167.41;;;7.90;90.16
74310;BME280;62722;51.142;17.052;2022-09-25T00:49:58;100173.78;;;7.86;90.07
74310;BME280;62722;51.142;17.052;2022-09-25T00:52:27;100177.69;;;7.78;90.44
74310;BME280;62722;51.142;17.052;2022-09-25T00:54:59;100161.41;;;7.72;90.72
74310;BME280;62722;51.142;17.052;2022-09-25T00:57:31;100178.34;;;7.66;91.50
74310;BME280;62722;51.142;17.052;2022-09-25T01:00:02;100163.78;;;7.61;91.87
74310;BME280;62722;51.142;17.052;2022-09-25T01:02:34;100155.22;;;7.57;92.15
74310;BME280;62722;51.142;17.052;2022-09-25T01:05:07;100150.06;;;7.56;91.64
74310;BME280;62722;51.142;17.052;2022-09-25T01:07:38;100155.31;;;7.56;91.66
74310;BME280;62722;51.142;17.052;2022-09-25T01:10:07;100162.31;;;7.55;91.62
74310;BME280;62722;51.142;17.052;2022-09-25T01:12:38;100158.94;;;7.53;91.50
74310;BME280;62722;51.142;17.052;2022-09-25T01:15:09;100154.97;;;7.46;91.56
74310;BME280;62722;51.142;17.052;2022-09-25T01:17:42;100160.91;;;7.50;92.58
74310;BME280;62722;51.142;17.052;2022-09-25T01:20:21;100167.50;;;7.57;92.19
74310;BME280;62722;51.142;17.052;2022-09-25T01:23:04;100163.00;;;7.59;91.30
74310;BME280;62722;51.142;17.052;2022-09-25T01:25:48;100164.03;;;7.56;91.89
74310;BME280;62722;51.142;17.052;2022-09-25T01:28:41;100163.25;;;7.54;92.37
74310;BME280;62722;51.142;17.052;2022-09-25T01:31:18;100147.16;;;7.45;92.25
74310;BME280;62722;51.142;17.052;2022-09-25T01:33:51;100163.41;;;7.51;92.76
74310;BME280;62722;51.142;17.052;2022-09-25T01:36:24;100159.25;;;7.47;92.83
74310;BME280;62722;51.142;17.052;2022-09-25T01:38:57;100154.78;;;7.49;93.11
74310;BME280;62722;51.142;17.052;2022-09-25T01:41:34;100163.25;;;7.54;93.70
74310;BME280;62722;51.142;17.052;2022-09-25T01:44:10;100157.16;;;7.69;93.03
74310;BME280;62722;51.142;17.052;2022-09-25T01:46:42;100160.81;;;7.82;92.25
74310;BME280;62722;51.142;17.052;2022-09-25T01:49:16;100155.28;;;7.87;91.55
74310;BME280;62722;51.142;17.052;2022-09-25T01:51:48;100162.16;;;7.90;91.33
74310;BME280;62722;51.142;17.052;2022-09-25T01:54:17;100168.16;;;7.92;91.23
74310;BME280;62722;51.142;17.052;2022-09-25T01:56:50;100167.06;;;7.96;90.69
74310;BME280;62722;51.142;17.052;2022-09-25T01:59:26;100166.13;;;7.97;90.29
74310;BME280;62722;51.142;17.052;2022-09-25T02:01:58;100172.00;;;8.02;89.99
74310;BME280;62722;51.142;17.052;2022-09-25T02:04:29;100170.47;;;7.98;89.52
74310;BME280;62722;51.142;17.052;2022-09-25T02:07:01;100156.91;;;7.90;89.71
74310;BME280;62722;51.142;17.052;2022-09-25T02:09:33;100156.81;;;7.91;89.97
74310;BME280;62722;51.142;17.052;2022-09-25T02:12:06;100164.28;;;7.83;89.87
74310;BME280;62722;51.142;17.052;2022-09-25T02:14:40;100163.94;;;7.73;89.89
74310;BME280;62722;51.142;17.052;2022-09-25T02:17:13;100163.78;;;7.61;90.65
74310;BME280;62722;51.142;17.052;2022-09-25T02:20:04;100167.94;;;7.49;91.05
74310;BME280;62722;51.142;17.052;2022-09-25T02:22:50;100164.88;;;7.41;91.98
74310;BME280;62722;51.142;17.052;2022-09-25T02:25:24;100169.44;;;7.38;92.51
74310;BME280;62722;51.142;17.052;2022-09-25T02:27:53;100170.34;;;7.37;92.87
74310;BME280;62722;51.142;17.052;2022-09-25T02:30:22;100172.06;;;7.38;93.04
74310;BME280;62722;51.142;17.052;2022-09-25T02:32:49;100165.88;;;7.39;92.37
74310;BME280;62722;51.142;17.052;2022-09-25T02:35:16;100163.16;;;7.40;92.43
74310;BME280;62722;51.142;17.052;2022-09-25T02:37:44;100162.06;;;7.44;92.05
74310;BME280;62722;51.142;17.052;2022-09-25T02:40:11;100162.06;;;7.44;92.08
74310;BME280;62722;51.142;17.052;2022-09-25T02:42:44;100157.66;;;7.45;92.37
74310;BME280;62722;51.142;17.052;2022-09-25T02:45:32;100158.75;;;7.41;91.94
74310;BME280;62722;51.142;17.052;2022-09-25T02:48:07;100150.53;;;7.31;92.52
74310;BME280;62722;51.142;17.052;2022-09-25T02:50:43;100146.38;;;7.27;92.98
74310;BME280;62722;51.142;17.052;2022-09-25T02:53:17;100144.84;;;7.23;92.32
74310;BME280;62722;51.142;17.052;2022-09-25T02:55:50;100145.09;;;7.18;91.97
74310;BME280;62722;51.142;17.052;2022-09-25T02:58:25;100148.22;;;7.25;92.74
74310;BME280;62722;51.142;17.052;2022-09-25T03:00:56;100149.34;;;7.37;91.78
74310;BME280;62722;51.142;17.052;2022-09-25T03:03:27;100141.97;;;7.43;91.25
74310;BME280;62722;51.142;17.052;2022-09-25T03:05:55;100149.53;;;7.49;90.48
74310;BME280;62722;51.142;17.052;2022-09-25T03:08:24;100149.72;;;7.46;89.86
74310;BME280;62722;51.142;17.052;2022-09-25T03:11:08;100145.47;;;7.44;89.80
74310;BME280;62722;51.142;17.052;2022-09-25T03:13:36;100138.84;;;7.37;89.89
74310;BME280;62722;51.142;17.052;2022-09-25T03:16:09;100138.34;;;7.30;89.88
74310;BME280;62722;51.142;17.052;2022-09-25T03:18:37;100139.66;;;7.21;90.88
74310;BME280;62722;51.142;17.052;2022-09-25T03:21:04;100143.66;;;7.13;91.92
74310;BME280;62722;51.142;17.052;2022-09-25T03:23:32;100144.25;;;7.18;91.96
74310;BME280;62722;51.142;17.052;2022-09-25T03:25:59;100137.47;;;7.14;91.40
74310;BME280;62722;51.142;17.052;2022-09-25T03:28:26;100141.94;;;7.12;91.38
74310;BME280;62722;51.142;17.052;2022-09-25T03:30:58;100140.41;;;7.08;92.21
74310;BME280;62722;51.142;17.052;2022-09-25T03:33:28;100136.25;;;7.04;92.93
74310;BME280;62722;51.142;17.052;2022-09-25T03:36:01;100134.66;;;7.01;92.04
74310;BME280;62722;51.142;17.052;2022-09-25T03:38:28;100131.19;;;7.01;92.11
74310;BME280;62722;51.142;17.052;2022-09-25T03:40:55;100132.25;;;6.97;92.40
74310;BME280;62722;51.142;17.052;2022-09-25T03:43:22;100137.59;;;6.95;92.72
74310;BME280;62722;51.142;17.052;2022-09-25T03:45:51;100137.69;;;6.94;92.63
74310;BME280;62722;51.142;17.052;2022-09-25T03:48:18;100131.19;;;7.01;92.98
74310;BME280;62722;51.142;17.052;2022-09-25T03:50:47;100130.38;;;7.16;92.08
74310;BME280;62722;51.142;17.052;2022-09-25T03:53:16;100136.38;;;7.18;91.66
74310;BME280;62722;51.142;17.052;2022-09-25T03:55:46;100136.47;;;7.16;91.17
74310;BME280;62722;51.142;17.052;2022-09-25T03:58:14;100128.84;;;7.12;91.03
74310;BME280;62722;51.142;17.052;2022-09-25T04:00:43;100131.22;;;7.16;90.80
74310;BME280;62722;51.142;17.052;2022-09-25T04:03:10;100129.97;;;7.23;90.01
74310;BME280;62722;51.142;17.052;2022-09-25T04:05:37;100133.56;;;7.21;89.67
74310;BME280;62722;51.142;17.052;2022-09-25T04:08:06;100127.91;;;7.13;90.05
74310;BME280;62722;51.142;17.052;2022-09-25T04:10:33;100127.91;;;7.13;90.54
74310;BME280;62722;51.142;17.052;2022-09-25T04:13:04;100132.88;;;7.17;90.07
74310;BME280;62722;51.142;17.052;2022-09-25T04:15:33;100126.44;;;7.07;89.92
74310;BME280;62722;51.142;17.052;2022-09-25T04:18:03;100127.63;;;7.02;90.35
74310;BME280;62722;51.142;17.052;2022-09-25T04:20:30;100122.28;;;7.03;90.08
74310;BME280;62722;51.142;17.052;2022-09-25T04:22:57;100123.91;;;7.06;90.16
74310;BME280;62722;51.142;17.052;2022-09-25T04:25:26;100121.84;;;6.95;89.68
74310;BME280;62722;51.142;17.052;2022-09-25T04:27:55;100117.94;;;6.87;90.05
74310;BME280;62722;51.142;17.052;2022-09-25T04:30:23;100122.94;;;6.91;90.12
74310;BME280;62722;51.142;17.052;2022-09-25T04:32:51;100135.63;;;6.99;90.15
74310;BME280;62722;51.142;17.052;2022-09-25T04:35:36;100132.09;;;7.00;90.04
74310;BME280;62722;51.142;17.052;2022-09-25T04:38:03;100141.00;;;6.97;89.97
74310;BME280;62722;51.142;17.052;2022-09-25T04:40:32;100120.00;;;6.97;90.05
74310;BME280;62722;51.142;17.052;2022-09-25T04:43:01;100124.31;;;6.98;90.27
74310;BME280;62722;51.142;17.052;2022-09-25T04:45:29;100126.25;;;6.95;89.88
74310;BME280;62722;51.142;17.052;2022-09-25T04:47:59;100136.13;;;6.90;90.26
74310;BME280;62722;51.142;17.052;2022-09-25T04:50:27;100126.56;;;6.89;90.34
74310;BME280;62722;51.142;17.052;2022-09-25T04:52:56;100136.91;;;6.92;89.90
74310;BME280;62722;51.142;17.052;2022-09-25T04:55:23;100131.81;;;6.89;90.01
74310;BME280;62722;51.142;17.052;2022-09-25T04:57:57;100130.03;;;6.89;89.95
74310;BME280;62722;51.142;17.052;2022-09-25T05:00:26;100134.88;;;6.97;89.37
74310;BME280;62722;51.142;17.052;2022-09-25T05:02:54;100130.50;;;6.97;89.02
74310;BME280;62722;51.142;17.052;2022-09-25T05:05:21;100127.78;;;6.99;89.02
74310;BME280;62722;51.142;17.052;2022-09-25T05:07:52;100129.63;;;6.97;89.37
74310;BME280;62722;51.142;17.052;2022-09-25T05:10:21;100135.06;;;6.94;89.68
74310;BME280;62722;51.142;17.052;2022-09-25T05:12:54;100130.50;;;6.97;89.67
74310;BME280;62722;51.142;17.052;2022-09-25T05:15:22;100129.81;;;6.94;89.24
74310;BME280;62722;51.142;17.052;2022-09-25T05:17:49;100129.44;;;6.84;89.71
74310;BME280;62722;51.142;17.052;2022-09-25T05:20:18;100132.44;;;6.76;90.20
74310;BME280;62722;51.142;17.052;2022-09-25T05:22:45;100131.69;;;6.74;91.53
74310;BME280;62722;51.142;17.052;2022-09-25T05:25:12;100134.66;;;6.84;90.61
74310;BME280;62722;51.142;17.052;2022-09-25T05:27:39;100136.91;;;6.92;90.28
74310;BME280;62722;51.142;17.052;2022-09-25T05:30:09;100137.28;;;7.01;89.94
74310;BME280;62722;51.142;17.052;2022-09-25T05:32:36;100137.63;;;7.11;89.87
74310;BME280;62722;51.142;17.052;2022-09-25T05:35:04;100139.00;;;7.18;89.45
74310;BME280;62722;51.142;17.052;2022-09-25T05:37:32;100129.34;;;7.18;89.98
74310;BME280;62722;51.142;17.052;2022-09-25T05:40:00;100130.53;;;7.13;90.85
74310;BME280;62722;51.142;17.052;2022-09-25T05:42:31;100134.09;;;7.12;92.05
74310;BME280;62722;51.142;17.052;2022-09-25T05:44:59;100137.47;;;7.14;93.43
74310;BME280;62722;51.142;17.052;2022-09-25T05:47:28;100132.13;;;7.15;94.02
74310;BME280;62722;51.142;17.052;2022-09-25T05:49:55;100138.06;;;7.19;94.31
74310;BME280;62722;51.142;17.052;2022-09-25T05:52:22;100146.03;;;7.33;94.60
74310;BME280;62722;51.142;17.052;2022-09-25T05:54:49;100144.53;;;7.45;94.15
74310;BME280;62722;51.142;17.052;2022-09-25T05:57:16;100138.09;;;7.50;93.95
74310;BME280;62722;51.142;17.052;2022-09-25T05:59:43;100141.50;;;7.52;94.27
74310;BME280;62722;51.142;17.052;2022-09-25T06:02:11;100133.44;;;7.55;94.72
74310;BME280;62722;51.142;17.052;2022-09-25T06:04:39;100133.78;;;7.65;94.16
74310;BME280;62722;51.142;17.052;2022-09-25T06:07:07;100139.31;;;7.76;94.13
74310;BME280;62722;51.142;17.052;2022-09-25T06:09:35;100133.59;;;7.83;94.28
74310;BME280;62722;51.142;17.052;2022-09-25T06:12:02;100131.56;;;7.89;94.15
74310;BME280;62722;51.142;17.052;2022-09-25T06:14:32;100138.94;;;7.98;93.74
74310;BME280;62722;51.142;17.052;2022-09-25T06:17:01;100139.88;;;7.97;93.75
74310;BME280;62722;51.142;17.052;2022-09-25T06:19:29;100140.53;;;8.00;93.79
74310;BME280;62722;51.142;17.052;2022-09-25T06:21:57;100143.75;;;8.05;94.11
74310;BME280;62722;51.142;17.052;2022-09-25T06:24:24;100131.44;;;8.06;93.78
74310;BME280;62722;51.142;17.052;2022-09-25T06:26:52;100131.09;;;8.12;93.80
74310;BME280;62722;51.142;17.052;2022-09-25T06:29:19;100131.66;;;8.17;93.81
74310;BME280;62722;51.142;17.052;2022-09-25T06:31:47;100134.97;;;8.20;93.62
74310;BME280;62722;51.142;17.052;2022-09-25T06:34:14;100123.25;;;8.26;93.41
74310;BME280;62722;51.142;17.052;2022-09-25T06:36:41;100131.84;;;8.29;93.36
74310;BME280;62722;51.142;17.052;2022-09-25T06:39:10;100131.78;;;8.31;93.61
74310;BME280;62722;51.142;17.052;2022-09-25T06:41:37;100127.25;;;8.33;93.57
74310;BME280;62722;51.142;17.052;2022-09-25T06:44:06;100127.75;;;8.40;93.42
74310;BME280;62722;51.142;17.052;2022-09-25T06:46:36;100125.59;;;8.46;93.49
74310;BME280;62722;51.142;17.052;2022-09-25T06:49:11;100121.75;;;8.52;93.45
74310;BME280;62722;51.142;17.052;2022-09-25T06:51:39;100125.91;;;8.56;93.28
74310;BME280;62722;51.142;17.052;2022-09-25T06:54:06;100127.31;;;8.61;93.54
74310;BME280;62722;51.142;17.052;2022-09-25T06:56:35;100120.00;;;8.66;93.15
74310;BME280;62722;51.142;17.052;2022-09-25T06:59:02;100120.59;;;8.71;93.22
74310;BME280;62722;51.142;17.052;2022-09-25T07:01:29;100120.00;;;8.80;93.29
74310;BME280;62722;51.142;17.052;2022-09-25T07:03:56;100118.50;;;8.91;93.15
74310;BME280;62722;51.142;17.052;2022-09-25T07:06:24;100120.59;;;9.00;92.96
74310;BME280;62722;51.142;17.052;2022-09-25T07:08:52;100114.84;;;9.07;92.75
74310;BME280;62722;51.142;17.052;2022-09-25T07:11:25;100115.31;;;9.14;92.21
74310;BME280;62722;51.142;17.052;2022-09-25T07:13:55;100121.63;;;9.25;92.04
74310;BME280;62722;51.142;17.052;2022-09-25T07:16:23;100126.31;;;9.35;91.42
74310;BME280;62722;51.142;17.052;2022-09-25T07:18:52;100117.38;;;9.37;91.60
74310;BME280;62722;51.142;17.052;2022-09-25T07:21:21;100125.25;;;9.51;90.76
74310;BME280;62722;51.142;17.052;2022-09-25T07:23:50;100128.25;;;9.59;90.84
74310;BME280;62722;51.142;17.052;2022-09-25T07:26:20;100121.44;;;9.69;90.56
74310;BME280;62722;51.142;17.052;2022-09-25T07:28:51;100125.38;;;9.76;90.33
74310;BME280;62722;51.142;17.052;2022-09-25T07:31:22;100121.59;;;9.81;90.38
74310;BME280;62722;51.142;17.052;2022-09-25T07:33:50;100121.88;;;9.90;89.94
74310;BME280;62722;51.142;17.052;2022-09-25T07:36:18;100122.50;;;9.94;90.67
74310;BME280;62722;51.142;17.052;2022-09-25T07:38:48;100117.91;;;10.10;89.89
74310;BME280;62722;51.142;17.052;2022-09-25T07:41:16;100116.72;;;10.28;89.23
74310;BME280;62722;51.142;17.052;2022-09-25T07:43:43;100114.63;;;10.46;88.58
74310;BME280;62722;51.142;17.052;2022-09-25T07:46:11;100112.78;;;10.60;87.97
74310;BME280;62722;51.142;17.052;2022-09-25T07:48:40;100120.91;;;10.70;88.29
74310;BME280;62722;51.142;17.052;2022-09-25T07:51:09;100117.41;;;10.69;88.58
74310;BME280;62722;51.142;17.052;2022-09-25T07:53:37;100117.31;;;10.84;88.68
74310;BME280;62722;51.142;17.052;2022-09-25T07:56:04;100113.41;;;11.02;87.41
74310;BME280;62722;51.142;17.052;2022-09-25T07:58:31;100105.34;;;11.16;86.03
74310;BME280;62722;51.142;17.052;2022-09-25T08:01:01;100111.06;;;11.22;86.80
74310;BME280;62722;51.142;17.052;2022-09-25T08:03:29;100111.47;;;11.29;87.00
74310;BME280;62722;51.142;17.052;2022-09-25T08:05:58;100113.34;;;11.40;86.06
74310;BME280;62722;51.142;17.052;2022-09-25T08:08:26;100117.69;;;11.41;86.34
74310;BME280;62722;51.142;17.052;2022-09-25T08:10:53;100115.63;;;11.57;85.30
74310;BME280;62722;51.142;17.052;2022-09-25T08:13:21;100110.41;;;11.81;83.94
74310;BME280;62722;51.142;17.052;2022-09-25T08:15:48;100110.75;;;12.00;82.75
74310;BME280;62722;51.142;17.052;2022-09-25T08:18:16;100100.88;;;12.02;82.87
74310;BME280;62722;51.142;17.052;2022-09-25T08:20:43;100097.94;;;12.17;80.99
74310;BME280;62722;51.142;17.052;2022-09-25T08:23:12;100094.84;;;12.24;81.41
74310;BME280;62722;51.142;17.052;2022-09-25T08:25:39;100092.09;;;12.25;81.34
74310;BME280;62722;51.142;17.052;2022-09-25T08:28:06;100086.78;;;12.25;81.58
74310;BME280;62722;51.142;17.052;2022-09-25T08:30:33;100092.81;;;12.27;81.98
74310;BME280;62722;51.142;17.052;2022-09-25T08:33:03;100083.56;;;12.33;82.14
74310;BME280;62722;51.142;17.052;2022-09-25T08:35:30;100083.44;;;12.34;82.04
74310;BME280;62722;51.142;17.052;2022-09-25T08:37:59;100080.09;;;12.32;80.92
74310;BME280;62722;51.142;17.052;2022-09-25T08:40:30;100071.88;;;12.24;82.71
74310;BME280;62722;51.142;17.052;2022-09-25T08:42:58;100075.38;;;12.25;82.72
74310;BME280;62722;51.142;17.052;2022-09-25T08:45:27;100070.44;;;12.31;82.07
74310;BME280;62722;51.142;17.052;2022-09-25T08:48:18;100075.06;;;12.40;80.46
74310;BME280;62722;51.142;17.052;2022-09-25T08:51:04;100071.81;;;12.48;80.94
74310;BME280;62722;51.142;17.052;2022-09-25T08:53:32;100075.22;;;12.61;80.40
74310;BME280;62722;51.142;17.052;2022-09-25T08:56:04;100066.09;;;12.87;77.71
74310;BME280;62722;51.142;17.052;2022-09-25T08:58:46;100057.31;;;13.09;77.25
74310;BME280;62722;51.142;17.052;2022-09-25T09:01:18;100063.38;;;13.22;76.27
74310;BME280;62722;51.142;17.052;2022-09-25T09:03:51;100053.09;;;13.29;77.02
74310;BME280;62722;51.142;17.052;2022-09-25T09:06:22;100055.16;;;13.36;77.21
74310;BME280;62722;51.142;17.052;2022-09-25T09:08:52;100054.91;;;13.28;78.00
74310;BME280;62722;51.142;17.052;2022-09-25T09:11:27;100049.88;;;13.14;78.62
74310;BME280;62722;51.142;17.052;2022-09-25T09:14:00;100038.06;;;13.18;75.50
74310;BME280;62722;51.142;17.052;2022-09-25T09:16:34;100048.41;;;13.32;76.27
74310;BME280;62722;51.142;17.052;2022-09-25T09:19:05;100039.13;;;13.27;77.58
74310;BME280;62722;51.142;17.052;2022-09-25T09:21:36;100041.06;;;13.25;75.33
74310;BME280;62722;51.142;17.052;2022-09-25T09:24:06;100042.03;;;13.24;74.85
74310;BME280;62722;51.142;17.052;2022-09-25T09:26:51;100037.97;;;13.62;72.77
74310;BME280;62722;51.142;17.052;2022-09-25T09:32:24;100034.47;;;13.94;72.09
74310;BME280;62722;51.142;17.052;2022-09-25T09:35:11;100036.16;;;13.95;72.25
74310;BME280;62722;51.142;17.052;2022-09-25T09:37:48;100035.72;;;14.10;70.96
74310;BME280;62722;51.142;17.052;2022-09-25T09:40:36;100033.78;;;14.12;72.12
74310;BME280;62722;51.142;17.052;2022-09-25T09:43:15;100028.56;;;14.22;71.06
74310;BME280;62722;51.142;17.052;2022-09-25T09:45:52;100016.94;;;14.23;70.75
74310;BME280;62722;51.142;17.052;2022-09-25T09:48:28;100018.19;;;14.19;71.59
74310;BME280;62722;51.142;17.052;2022-09-25T09:51:04;100027.88;;;14.09;72.75
74310;BME280;62722;51.142;17.052;2022-09-25T09:53:38;100018.75;;;14.02;71.70
74310;BME280;62722;51.142;17.052;2022-09-25T09:56:11;100017.22;;;13.99;72.37
74310;BME280;62722;51.142;17.052;2022-09-25T09:58:46;100008.53;;;13.97;73.23
74310;BME280;62722;51.142;17.052;2022-09-25T10:01:17;100012.03;;;13.98;72.64
74310;BME280;62722;51.142;17.052;2022-09-25T10:03:49;100004.75;;;14.11;72.39
74310;BME280;62722;51.142;17.052;2022-09-25T10:06:22;100007.25;;;14.12;73.26
74310;BME280;62722;51.142;17.052;2022-09-25T10:08:51;100012.13;;;14.07;72.51
74310;BME280;62722;51.142;17.052;2022-09-25T10:11:19;100019.50;;;14.04;72.51
74310;BME280;62722;51.142;17.052;2022-09-25T10:13:48;100005.63;;;14.21;70.17
74310;BME280;62722;51.142;17.052;2022-09-25T10:16:18;99997.38;;;14.35;69.58
74310;BME280;62722;51.142;17.052;2022-09-25T10:18:49;100002.59;;;14.46;68.99
74310;BME280;62722;51.142;17.052;2022-09-25T10:21:21;100000.69;;;14.48;68.81
74310;BME280;62722;51.142;17.052;2022-09-25T10:23:50;99999.25;;;14.75;68.47
74310;BME280;62722;51.142;17.052;2022-09-25T10:26:27;99995.09;;;14.82;68.49
74310;BME280;62722;51.142;17.052;2022-09-25T10:28:56;99988.66;;;14.84;68.39
74310;BME280;62722;51.142;17.052;2022-09-25T10:31:26;99995.78;;;14.84;68.39
74310;BME280;62722;51.142;17.052;2022-09-25T10:34:02;99981.75;;;15.02;66.23
74310;BME280;62722;51.142;17.052;2022-09-25T10:36:36;99977.56;;;15.09;66.42
74310;BME280;62722;51.142;17.052;2022-09-25T10:39:25;99984.00;;;15.17;65.92
74310;BME280;62722;51.142;17.052;2022-09-25T10:41:52;99981.78;;;15.22;64.99
74310;BME280;62722;51.142;17.052;2022-09-25T10:44:28;99978.56;;;15.28;64.17
74310;BME280;62722;51.142;17.052;2022-09-25T10:47:27;99972.41;;;15.27;63.56
74310;BME280;62722;51.142;17.052;2022-09-25T10:50:15;99973.13;;;15.29;62.70
74310;BME280;62722;51.142;17.052;2022-09-25T10:52:45;99971.19;;;15.41;62.87
74310;BME280;62722;51.142;17.052;2022-09-25T10:55:23;99963.78;;;15.44;61.67
74310;BME280;62722;51.142;17.052;2022-09-25T10:57:58;99966.44;;;15.44;62.58
74310;BME280;62722;51.142;17.052;2022-09-25T11:00:37;99960.25;;;15.34;64.29
74310;BME280;62722;51.142;17.052;2022-09-25T11:03:06;99967.53;;;15.42;64.23
74310;BME280;62722;51.142;17.052;2022-09-25T11:05:49;99960.00;;;15.47;61.24
74310;BME280;62722;51.142;17.052;2022-09-25T11:08:18;99961.94;;;15.35;62.24
74310;BME280;62722;51.142;17.052;2022-09-25T11:10:50;99956.06;;;15.32;60.31
74310;BME280;62722;51.142;17.052;2022-09-25T11:13:23;99949.47;;;15.26;61.42
74310;BME280;62722;51.142;17.052;2022-09-25T11:15:57;99946.09;;;15.15;63.59
74310;BME280;62722;51.142;17.052;2022-09-25T11:18:34;99953.81;;;15.27;62.93
74310;BME280;62722;51.142;17.052;2022-09-25T11:21:03;99947.38;;;15.30;62.34
74310;BME280;62722;51.142;17.052;2022-09-25T11:23:34;99949.34;;;15.28;62.22
74310;BME280;62722;51.142;17.052;2022-09-25T11:26:07;99944.88;;;15.47;60.23
74310;BME280;62722;51.142;17.052;2022-09-25T11:28:39;99953.28;;;15.52;61.25
74310;BME280;62722;51.142;17.052;2022-09-25T11:31:17;99951.34;;;15.54;62.44
74310;BME280;62722;51.142;17.052;2022-09-25T11:33:50;99944.03;;;15.47;63.27
74310;BME280;62722;51.142;17.052;2022-09-25T11:36:23;99957.94;;;15.50;62.22
74310;BME280;62722;51.142;17.052;2022-09-25T11:38:55;99948.38;;;15.48;61.83
74310;BME280;62722;51.142;17.052;2022-09-25T11:41:47;99936.75;;;15.39;61.44
74310;BME280;62722;51.142;17.052;2022-09-25T11:44:24;99940.94;;;15.32;62.96
74310;BME280;62722;51.142;17.052;2022-09-25T11:47:03;99937.78;;;15.57;61.02
74310;BME280;62722;51.142;17.052;2022-09-25T11:49:35;99935.09;;;15.57;62.33
74310;BME280;62722;51.142;17.052;2022-09-25T11:58:22;99928.09;;;15.47;63.99
74310;BME280;62722;51.142;17.052;2022-09-25T12:01:00;99929.22;;;15.64;61.96
74310;BME280;62722;51.142;17.052;2022-09-25T12:03:45;99925.16;;;15.59;62.18
74310;BME280;62722;51.142;17.052;2022-09-25T12:06:25;99923.22;;;15.52;63.55
74310;BME280;62722;51.142;17.052;2022-09-25T12:09:08;99915.81;;;15.55;62.80
74310;BME280;62722;51.142;17.052;2022-09-25T12:11:45;99912.84;;;15.58;62.42
74310;BME280;62722;51.142;17.052;2022-09-25T12:14:21;99925.88;;;15.62;61.95
74310;BME280;62722;51.142;17.052;2022-09-25T12:16:58;99923.63;;;15.67;63.04
74310;BME280;62722;51.142;17.052;2022-09-25T12:19:36;99913.97;;;15.85;55.46
74310;BME280;62722;51.142;17.052;2022-09-25T12:22:12;99905.13;;;15.84;54.60
74310;BME280;62722;51.142;17.052;2022-09-25T12:24:47;99906.53;;;15.79;56.79
74310;BME280;62722;51.142;17.052;2022-09-25T12:27:24;99900.94;;;15.72;58.33
74310;BME280;62722;51.142;17.052;2022-09-25T12:30:02;99902.34;;;15.76;57.39
74310;BME280;62722;51.142;17.052;2022-09-25T12:32:46;99898.69;;;15.77;56.41
74310;BME280;62722;51.142;17.052;2022-09-25T12:35:31;99902.88;;;15.80;57.92
74310;BME280;62722;51.142;17.052;2022-09-25T12:38:02;99898.69;;;15.77;56.43
74310;BME280;62722;51.142;17.052;2022-09-25T12:40:35;99893.09;;;15.71;58.61
74310;BME280;62722;51.142;17.052;2022-09-25T12:43:06;99892.94;;;15.82;58.11
74310;BME280;62722;51.142;17.052;2022-09-25T12:45:42;99895.03;;;15.88;58.19
74310;BME280;62722;51.142;17.052;2022-09-25T12:48:14;99898.09;;;15.93;57.53
74310;BME280;62722;51.142;17.052;2022-09-25T12:50:51;99893.34;;;15.87;58.98
74310;BME280;62722;51.142;17.052;2022-09-25T12:53:26;99888.75;;;15.79;57.39
74310;BME280;62722;51.142;17.052;2022-09-25T12:56:00;99891.69;;;15.76;56.13
74310;BME280;62722;51.142;17.052;2022-09-25T12:58:40;99881.34;;;15.73;57.73
74310;BME280;62722;51.142;17.052;2022-09-25T13:01:16;99890.56;;;15.88;57.32
74310;BME280;62722;51.142;17.052;2022-09-25T13:03:49;99881.31;;;15.83;58.09
74310;BME280;62722;51.142;17.052;2022-09-25T13:06:24;99882.19;;;15.74;61.75
74310;BME280;62722;51.142;17.052;2022-09-25T13:08:56;99884.41;;;15.69;60.79
74310;BME280;62722;51.142;17.052;2022-09-25T13:11:35;99883.28;;;15.71;58.99
74310;BME280;62722;51.142;17.052;2022-09-25T13:14:06;99883.28;;;15.71;60.77
74310;BME280;62722;51.142;17.052;2022-09-25T13:16:37;99879.78;;;15.71;59.74
74310;BME280;62722;51.142;17.052;2022-09-25T13:19:20;99884.13;;;15.72;60.41
74310;BME280;62722;51.142;17.052;2022-09-25T13:21:50;99881.06;;;15.67;61.15